sensor_id;sensor_type;location;lat;lon;timestamp;pressure;altitude;pressure_sealevel;temperature;humidity
26775;BME280;14362;51.902;7.626;2022-12-07T00:03:04;100964.38;;;5.19;100.00
26775;BME280;14362;51.902;7.626;2022-12-07T00:07:05;100971.00;;;5.18;100.00
26775;BME280;14362;51.902;7.626;2022-12-07T00:11:08;100966.28;;;5.19;100.00
26775;BME280;14362;51.902;7.626;2022-12-07T00:15:12;100967.94;;;5.25;100.00
26775;BME280;14362;51.902;7.626;2022-12-07T00:19:13;100975.41;;;5.24;100.00
26775;BME280;14362;51.902;7.626;2022-12-07T00:23:15;100967.13;;;5.24;100.00
26775;BME280;14362;51.902;7.626;2022-12-07T00:27:16;100970.16;;;5.23;100.00
26775;BME280;14362;51.902;7.626;2022-12-07T00:31:22;100966.03;;;5.20;100.00
26775;BME280;14362;51.902;7.626;2022-12-07T00:35:23;100960.25;;;5.17;100.00
26775;BME280;14362;51.902;7.626;2022-12-07T00:39:25;100951.91;;;5.22;100.00
26775;BME280;14362;51.902;7.626;2022-12-07T00:43:26;100946.94;;;5.19;100.00
26775;BME280;14362;51.902;7.626;2022-12-07T00:47:29;100948.91;;;5.13;100.00
26775;BME280;14362;51.902;7.626;2022-12-07T00:51:31;100945.09;;;5.09;100.00
26775;BME280;14362;51.902;7.626;2022-12-07T00:55:32;100948.44;;;5.06;100.00
26775;BME280;14362;51.902;7.626;2022-12-07T00:59:34;100941.50;;;5.04;100.00
26775;BME280;14362;51.902;7.626;2022-12-07T01:03:37;100941.00;;;4.97;100.00
26775;BME280;14362;51.902;7.626;2022-12-07T01:07:38;100947.09;;;4.94;100.00
26775;BME280;14362;51.902;7.626;2022-12-07T01:11:40;100940.22;;;4.87;100.00
26775;BME280;14362;51.902;7.626;2022-12-07T01:15:43;100933.03;;;4.86;100.00
26775;BME280;14362;51.902;7.626;2022-12-07T01:19:46;100947.41;;;4.83;100.00
26775;BME280;14362;51.902;7.626;2022-12-07T01:23:48;100940.22;;;4.82;100.00
26775;BME280;14362;51.902;7.626;2022-12-07T01:27:50;100947.97;;;4.80;100.00
26775;BME280;14362;51.902;7.626;2022-12-07T01:31:51;100946.03;;;4.80;100.00
26775;BME280;14362;51.902;7.626;2022-12-07T01:35:54;100957.91;;;4.76;100.00
26775;BME280;14362;51.902;7.626;2022-12-07T01:39:55;100960.72;;;4.71;100.00
26775;BME280;14362;51.902;7.626;2022-12-07T01:44:13;100957.41;;;4.69;100.00
26775;BME280;14362;51.902;7.626;2022-12-07T01:48:17;100956.31;;;4.65;100.00
26775;BME280;14362;51.902;7.626;2022-12-07T01:52:24;100961.56;;;4.56;100.00
26775;BME280;14362;51.902;7.626;2022-12-07T01:56:26;100955.25;;;4.51;100.00
26775;BME280;14362;51.902;7.626;2022-12-07T02:00:29;100959.94;;;4.40;100.00
26775;BME280;14362;51.902;7.626;2022-12-07T02:04:30;100960.75;;;4.41;100.00
26775;BME280;14362;51.902;7.626;2022-12-07T02:08:33;100961.88;;;4.40;100.00
26775;BME280;14362;51.902;7.626;2022-12-07T02:12:35;100956.94;;;4.32;100.00
26775;BME280;14362;51.902;7.626;2022-12-07T02:16:45;100948.66;;;4.27;100.00
26775;BME280;14362;51.902;7.626;2022-12-07T02:20:56;100953.34;;;4.21;100.00
26775;BME280;14362;51.902;7.626;2022-12-07T02:25:08;100949.75;;;4.21;100.00
26775;BME280;14362;51.902;7.626;2022-12-07T02:29:21;100949.75;;;4.21;100.00
26775;BME280;14362;51.902;7.626;2022-12-07T02:33:26;100949.47;;;4.12;100.00
26775;BME280;14362;51.902;7.626;2022-12-07T02:37:35;100948.66;;;4.02;100.00
26775;BME280;14362;51.902;7.626;2022-12-07T02:41:43;100954.72;;;3.99;100.00
26775;BME280;14362;51.902;7.626;2022-12-07T02:45:47;100952.00;;;3.94;100.00
26775;BME280;14362;51.902;7.626;2022-12-07T02:49:51;100944.53;;;3.90;100.00
26775;BME280;14362;51.902;7.626;2022-12-07T02:53:53;100948.41;;;3.84;100.00
26775;BME280;14362;51.902;7.626;2022-12-07T02:58:06;100950.84;;;3.80;100.00
26775;BME280;14362;51.902;7.626;2022-12-07T03:02:20;100946.72;;;3.78;100.00
26775;BME280;14362;51.902;7.626;2022-12-07T03:06:30;100958.59;;;3.73;100.00
26775;BME280;14362;51.902;7.626;2022-12-07T03:10:38;100950.31;;;3.68;100.00
26775;BME280;14362;51.902;7.626;2022-12-07T03:14:47;100945.09;;;3.67;100.00
26775;BME280;14362;51.902;7.626;2022-12-07T03:18:55;100942.03;;;3.63;100.00
26775;BME280;14362;51.902;7.626;2022-12-07T03:22:59;100940.13;;;3.64;100.00
26775;BME280;14362;51.902;7.626;2022-12-07T03:27:03;100935.69;;;3.58;100.00
26775;BME280;14362;51.902;7.626;2022-12-07T03:31:07;100933.50;;;3.60;100.00
26775;BME280;14362;51.902;7.626;2022-12-07T03:35:18;100932.66;;;3.59;100.00
26775;BME280;14362;51.902;7.626;2022-12-07T03:39:25;100927.97;;;3.60;100.00
26775;BME280;14362;51.902;7.626;2022-12-07T03:43:28;100923.84;;;3.57;100.00
26775;BME280;14362;51.902;7.626;2022-12-07T03:47:33;100927.97;;;3.55;100.00
26775;BME280;14362;51.902;7.626;2022-12-07T03:51:40;100924.09;;;3.51;100.00
26775;BME280;14362;51.902;7.626;2022-12-07T03:55:46;100930.44;;;3.46;100.00
26775;BME280;14362;51.902;7.626;2022-12-07T03:59:49;100929.31;;;3.42;100.00
26775;BME280;14362;51.902;7.626;2022-12-07T04:03:52;100922.72;;;3.43;100.00
26775;BME280;14362;51.902;7.626;2022-12-07T04:07:55;100927.13;;;3.44;100.00
26775;BME280;14362;51.902;7.626;2022-12-07T04:11:56;100934.84;;;3.47;100.00
26775;BME280;14362;51.902;7.626;2022-12-07T04:15:57;100928.25;;;3.48;100.00
26775;BME280;14362;51.902;7.626;2022-12-07T04:19:59;100929.34;;;3.52;100.00
26775;BME280;14362;51.902;7.626;2022-12-07T04:24:02;100932.66;;;3.54;100.00
26775;BME280;14362;51.902;7.626;2022-12-07T04:28:04;100937.34;;;3.59;100.00
26775;BME280;14362;51.902;7.626;2022-12-07T04:32:05;100934.31;;;3.55;100.00
26775;BME280;14362;51.902;7.626;2022-12-07T04:36:07;100928.53;;;3.47;100.00
26775;BME280;14362;51.902;7.626;2022-12-07T04:40:10;100934.56;;;3.44;100.00
26775;BME280;14362;51.902;7.626;2022-12-07T04:44:14;100934.84;;;3.37;100.00
26775;BME280;14362;51.902;7.626;2022-12-07T04:48:16;100938.41;;;3.38;100.00
26775;BME280;14362;51.902;7.626;2022-12-07T04:52:17;100937.28;;;3.34;100.00
26775;BME280;14362;51.902;7.626;2022-12-07T04:56:20;100926.00;;;3.30;100.00
26775;BME280;14362;51.902;7.626;2022-12-07T05:00:22;100936.47;;;3.28;100.00
26775;BME280;14362;51.902;7.626;2022-12-07T05:04:23;100934.56;;;3.29;100.00
26775;BME280;14362;51.902;7.626;2022-12-07T05:08:25;100935.06;;;3.21;100.00
26775;BME280;14362;51.902;7.626;2022-12-07T05:12:27;100929.81;;;3.09;100.00
26775;BME280;14362;51.902;7.626;2022-12-07T05:16:29;100929.25;;;3.07;100.00
26775;BME280;14362;51.902;7.626;2022-12-07T05:20:31;100936.16;;;3.15;100.00
26775;BME280;14362;51.902;7.626;2022-12-07T05:24:32;100922.13;;;3.16;100.00
26775;BME280;14362;51.902;7.626;2022-12-07T05:28:35;100935.88;;;3.21;100.00
26775;BME280;14362;51.902;7.626;2022-12-07T05:32:36;100937.28;;;3.24;100.00
26775;BME280;14362;51.902;7.626;2022-12-07T05:36:38;100939.50;;;3.27;100.00
26775;BME280;14362;51.902;7.626;2022-12-07T05:40:39;100934.00;;;3.27;100.00
26775;BME280;14362;51.902;7.626;2022-12-07T05:44:43;100927.66;;;3.31;100.00
26775;BME280;14362;51.902;7.626;2022-12-07T05:48:45;100919.66;;;3.35;100.00
26775;BME280;14362;51.902;7.626;2022-12-07T05:52:46;100920.22;;;3.32;100.00
26775;BME280;14362;51.902;7.626;2022-12-07T05:56:48;100911.97;;;3.27;100.00
26775;BME280;14362;51.902;7.626;2022-12-07T06:00:50;100917.44;;;3.22;100.00
26775;BME280;14362;51.902;7.626;2022-12-07T06:04:52;100920.47;;;3.15;100.00
26775;BME280;14362;51.902;7.626;2022-12-07T06:08:53;100920.19;;;3.17;100.00
26775;BME280;14362;51.902;7.626;2022-12-07T06:12:54;100921.28;;;3.16;100.00
26775;BME280;14362;51.902;7.626;2022-12-07T06:16:57;100927.09;;;3.19;100.00
26775;BME280;14362;51.902;7.626;2022-12-07T06:20:59;100917.72;;;3.15;100.00
26775;BME280;14362;51.902;7.626;2022-12-07T06:25:00;100929.00;;;3.19;100.00
26775;BME280;14362;51.902;7.626;2022-12-07T06:29:02;100925.41;;;3.13;100.00
26775;BME280;14362;51.902;7.626;2022-12-07T06:33:05;100930.91;;;3.13;100.00
26775;BME280;14362;51.902;7.626;2022-12-07T06:37:06;100923.75;;;3.12;100.00
26775;BME280;14362;51.902;7.626;2022-12-07T06:41:08;100930.63;;;3.15;100.00
26775;BME280;14362;51.902;7.626;2022-12-07T06:45:10;100923.47;;;3.09;100.00
26775;BME280;14362;51.902;7.626;2022-12-07T06:49:12;100919.34;;;3.02;100.00
26775;BME280;14362;51.902;7.626;2022-12-07T06:53:14;100920.41;;;2.96;100.00
26775;BME280;14362;51.902;7.626;2022-12-07T06:57:15;100933.03;;;2.92;100.00
26775;BME280;14362;51.902;7.626;2022-12-07T07:01:17;100933.56;;;2.84;100.00
26775;BME280;14362;51.902;7.626;2022-12-07T07:05:20;100942.94;;;2.83;100.00
26775;BME280;14362;51.902;7.626;2022-12-07T07:09:22;100948.97;;;2.80;100.00
26775;BME280;14362;51.902;7.626;2022-12-07T07:13:23;100944.25;;;2.75;100.00
26775;BME280;14362;51.902;7.626;2022-12-07T07:17:25;100946.72;;;2.72;100.00
26775;BME280;14362;51.902;7.626;2022-12-07T07:21:27;100947.81;;;2.71;100.00
26775;BME280;14362;51.902;7.626;2022-12-07T07:25:29;100948.34;;;2.68;100.00
26775;BME280;14362;51.902;7.626;2022-12-07T07:29:30;100942.88;;;2.73;100.00
26775;BME280;14362;51.902;7.626;2022-12-07T07:33:32;100947.81;;;2.71;100.00
26775;BME280;14362;51.902;7.626;2022-12-07T07:37:35;100944.56;;;2.79;100.00
26775;BME280;14362;51.902;7.626;2022-12-07T07:41:36;100952.81;;;2.84;100.00
26775;BME280;14362;51.902;7.626;2022-12-07T07:45:37;100955.31;;;2.85;100.00
26775;BME280;14362;51.902;7.626;2022-12-07T07:49:39;100949.28;;;2.88;100.00
26775;BME280;14362;51.902;7.626;2022-12-07T07:53:41;100949.56;;;2.92;100.00
26775;BME280;14362;51.902;7.626;2022-12-07T07:57:43;100962.50;;;2.96;100.00
26775;BME280;14362;51.902;7.626;2022-12-07T08:01:44;100947.41;;;3.03;100.00
26775;BME280;14362;51.902;7.626;2022-12-07T08:05:46;100951.84;;;3.09;100.00
26775;BME280;14362;51.902;7.626;2022-12-07T08:09:48;100951.81;;;3.04;100.00
26775;BME280;14362;51.902;7.626;2022-12-07T08:13:50;100964.72;;;2.99;100.00
26775;BME280;14362;51.902;7.626;2022-12-07T08:17:51;100968.56;;;2.93;100.00
26775;BME280;14362;51.902;7.626;2022-12-07T08:21:52;100970.50;;;2.93;100.00
26775;BME280;14362;51.902;7.626;2022-12-07T08:26:01;100966.59;;;2.89;100.00
26775;BME280;14362;51.902;7.626;2022-12-07T08:30:03;100957.78;;;2.87;100.00
26775;BME280;14362;51.902;7.626;2022-12-07T08:34:04;100954.22;;;2.86;100.00
26775;BME280;14362;51.902;7.626;2022-12-07T08:38:05;100961.09;;;2.89;100.00
26775;BME280;14362;51.902;7.626;2022-12-07T08:42:08;100959.75;;;2.91;100.00
26775;BME280;14362;51.902;7.626;2022-12-07T08:46:13;100962.78;;;2.95;100.00
26775;BME280;14362;51.902;7.626;2022-12-07T08:50:19;100957.84;;;2.97;100.00
26775;BME280;14362;51.902;7.626;2022-12-07T08:54:21;100965.59;;;3.09;100.00
26775;BME280;14362;51.902;7.626;2022-12-07T08:58:24;100957.66;;;3.23;100.00
26775;BME280;14362;51.902;7.626;2022-12-07T09:02:25;100964.06;;;3.38;100.00
26775;BME280;14362;51.902;7.626;2022-12-07T09:06:28;100962.66;;;3.51;100.00
26775;BME280;14362;51.902;7.626;2022-12-07T09:10:30;100961.88;;;3.60;100.00
26775;BME280;14362;51.902;7.626;2022-12-07T09:14:32;100959.13;;;3.65;100.00
26775;BME280;14362;51.902;7.626;2022-12-07T09:18:34;100961.63;;;3.77;100.00
26775;BME280;14362;51.902;7.626;2022-12-07T09:22:35;100968.53;;;3.74;100.00
26775;BME280;14362;51.902;7.626;2022-12-07T09:26:37;100971.00;;;3.81;100.00
26775;BME280;14362;51.902;7.626;2022-12-07T09:30:46;100958.88;;;3.82;100.00
26775;BME280;14362;51.902;7.626;2022-12-07T09:34:48;100956.38;;;3.85;100.00
26775;BME280;14362;51.902;7.626;2022-12-07T09:38:49;100962.44;;;3.82;100.00
26775;BME280;14362;51.902;7.626;2022-12-07T09:42:53;100963.28;;;3.78;100.00
26775;BME280;14362;51.902;7.626;2022-12-07T09:46:57;100959.13;;;3.80;100.00
26775;BME280;14362;51.902;7.626;2022-12-07T09:51:00;100959.13;;;3.80;100.00
26775;BME280;14362;51.902;7.626;2022-12-07T09:55:08;100958.34;;;3.85;100.00
26775;BME280;14362;51.902;7.626;2022-12-07T09:59:14;100964.38;;;3.82;100.00
26775;BME280;14362;51.902;7.626;2022-12-07T10:03:19;100956.09;;;3.77;100.00
26775;BME280;14362;51.902;7.626;2022-12-07T10:07:20;100944.53;;;3.85;100.00
26775;BME280;14362;51.902;7.626;2022-12-07T10:11:22;100953.66;;;3.95;100.00
26775;BME280;14362;51.902;7.626;2022-12-07T10:15:23;100943.69;;;3.99;100.00
26775;BME280;14362;51.902;7.626;2022-12-07T10:19:42;100947.00;;;4.06;100.00
26775;BME280;14362;51.902;7.626;2022-12-07T10:23:59;100952.50;;;4.16;100.00
26775;BME280;14362;51.902;7.626;2022-12-07T10:28:09;100950.31;;;4.18;100.00
26775;BME280;14362;51.902;7.626;2022-12-07T10:32:28;100944.25;;;4.26;100.00
26775;BME280;14362;51.902;7.626;2022-12-07T10:36:36;100933.72;;;4.38;100.00
26775;BME280;14362;51.902;7.626;2022-12-07T10:40:38;100933.16;;;4.41;100.00
26775;BME280;14362;51.902;7.626;2022-12-07T10:44:39;100943.06;;;4.57;100.00
26775;BME280;14362;51.902;7.626;2022-12-07T10:48:50;100930.66;;;4.54;100.00
26775;BME280;14362;51.902;7.626;2022-12-07T10:53:17;100926.19;;;4.63;100.00
26775;BME280;14362;51.902;7.626;2022-12-07T10:57:32;100921.78;;;4.67;100.00
26775;BME280;14362;51.902;7.626;2022-12-07T11:01:45;100911.75;;;4.86;100.00
26775;BME280;14362;51.902;7.626;2022-12-07T11:05:55;100903.38;;;5.11;100.00
26775;BME280;14362;51.902;7.626;2022-12-07T11:10:05;100913.31;;;5.07;100.00
26775;BME280;14362;51.902;7.626;2022-12-07T11:14:20;100899.09;;;5.28;100.00
26775;BME280;14362;51.902;7.626;2022-12-07T11:18:28;100894.13;;;5.30;100.00
26775;BME280;14362;51.902;7.626;2022-12-07T11:22:38;100879.69;;;5.43;100.00
26775;BME280;14362;51.902;7.626;2022-12-07T11:26:54;100879.09;;;5.46;100.00
26775;BME280;14362;51.902;7.626;2022-12-07T11:31:04;100872.69;;;5.56;100.00
26775;BME280;14362;51.902;7.626;2022-12-07T11:35:19;100879.03;;;5.51;100.00
26775;BME280;14362;51.902;7.626;2022-12-07T11:39:26;100877.38;;;5.50;100.00
26775;BME280;14362;51.902;7.626;2022-12-07T11:43:34;100868.06;;;5.41;100.00
26775;BME280;14362;51.902;7.626;2022-12-07T11:47:38;100864.00;;;5.29;100.00
26775;BME280;14362;51.902;7.626;2022-12-07T11:51:45;100871.84;;;5.17;100.00
26775;BME280;14362;51.902;7.626;2022-12-07T11:55:52;100860.16;;;5.25;100.00
26775;BME280;14362;51.902;7.626;2022-12-07T12:00:02;100867.00;;;5.37;100.00
26775;BME280;14362;51.902;7.626;2022-12-07T12:04:12;100853.34;;;5.51;100.00
26775;BME280;14362;51.902;7.626;2022-12-07T12:08:17;100864.13;;;5.52;100.00
26775;BME280;14362;51.902;7.626;2022-12-07T12:12:34;100851.41;;;5.51;100.00
26775;BME280;14362;51.902;7.626;2022-12-07T12:16:56;100851.13;;;5.53;100.00
26775;BME280;14362;51.902;7.626;2022-12-07T12:21:02;100845.63;;;5.48;100.00
26775;BME280;14362;51.902;7.626;2022-12-07T12:25:06;100835.16;;;5.45;100.00
26775;BME280;14362;51.902;7.626;2022-12-07T12:29:20;100833.97;;;5.56;100.00
26775;BME280;14362;51.902;7.626;2022-12-07T12:33:27;100829.16;;;5.66;100.00
26775;BME280;14362;51.902;7.626;2022-12-07T12:37:41;100836.09;;;5.64;100.00
26775;BME280;14362;51.902;7.626;2022-12-07T12:41:59;100837.19;;;5.68;100.00
26775;BME280;14362;51.902;7.626;2022-12-07T12:46:38;100831.09;;;5.66;100.00
26775;BME280;14362;51.902;7.626;2022-12-07T12:50:47;100822.84;;;5.61;100.00
26775;BME280;14362;51.902;7.626;2022-12-07T12:54:58;100824.81;;;5.60;100.00
26775;BME280;14362;51.902;7.626;2022-12-07T12:59:24;100822.56;;;5.62;100.00
26775;BME280;14362;51.902;7.626;2022-12-07T13:03:27;100824.28;;;5.53;100.00
26775;BME280;14362;51.902;7.626;2022-12-07T13:07:55;100821.88;;;5.47;100.00
26775;BME280;14362;51.902;7.626;2022-12-07T13:12:04;100816.63;;;5.45;100.00
26775;BME280;14362;51.902;7.626;2022-12-07T13:16:37;100811.41;;;5.39;100.00
26775;BME280;14362;51.902;7.626;2022-12-07T13:20:51;100799.59;;;5.33;100.00
26775;BME280;14362;51.902;7.626;2022-12-07T13:24:56;100797.69;;;5.29;100.00
26775;BME280;14362;51.902;7.626;2022-12-07T13:29:07;100790.66;;;5.46;100.00
26775;BME280;14362;51.902;7.626;2022-12-07T13:33:12;100790.59;;;5.51;100.00
26775;BME280;14362;51.902;7.626;2022-12-07T13:37:19;100780.38;;;5.52;100.00
26775;BME280;14362;51.902;7.626;2022-12-07T13:41:25;100788.34;;;5.53;100.00
26775;BME280;14362;51.902;7.626;2022-12-07T13:45:29;100785.94;;;5.75;100.00
26775;BME280;14362;51.902;7.626;2022-12-07T13:49:51;100775.19;;;6.02;100.00
26775;BME280;14362;51.902;7.626;2022-12-07T13:53:54;100775.91;;;6.12;100.00
26775;BME280;14362;51.902;7.626;2022-12-07T13:57:57;100778.75;;;6.26;100.00
26775;BME280;14362;51.902;7.626;2022-12-07T14:01:59;100775.06;;;6.12;100.00
26775;BME280;14362;51.902;7.626;2022-12-07T14:06:07;100772.16;;;5.99;100.00
26775;BME280;14362;51.902;7.626;2022-12-07T14:10:23;100762.22;;;5.98;100.00
26775;BME280;14362;51.902;7.626;2022-12-07T14:14:29;100762.03;;;5.89;100.00
26775;BME280;14362;51.902;7.626;2022-12-07T14:18:38;100766.50;;;5.85;100.00
26775;BME280;14362;51.902;7.626;2022-12-07T14:22:40;100765.38;;;5.86;100.00
26775;BME280;14362;51.902;7.626;2022-12-07T14:26:41;100760.47;;;5.83;100.00
26775;BME280;14362;51.902;7.626;2022-12-07T14:30:44;100759.41;;;5.74;100.00
26775;BME280;14362;51.902;7.626;2022-12-07T14:35:00;100764.63;;;5.76;100.00
26775;BME280;14362;51.902;7.626;2022-12-07T14:39:02;100765.28;;;5.68;100.00
26775;BME280;14362;51.902;7.626;2022-12-07T14:43:05;100761.63;;;5.72;100.00
26775;BME280;14362;51.902;7.626;2022-12-07T14:47:11;100748.97;;;5.66;100.00
26775;BME280;14362;51.902;7.626;2022-12-07T14:51:13;100752.91;;;5.60;100.00
26775;BME280;14362;51.902;7.626;2022-12-07T14:55:18;100756.59;;;5.51;100.00
26775;BME280;14362;51.902;7.626;2022-12-07T14:59:21;100752.16;;;5.55;100.00
26775;BME280;14362;51.902;7.626;2022-12-07T15:03:24;100749.44;;;5.50;100.00
26775;BME280;14362;51.902;7.626;2022-12-07T15:07:25;100748.13;;;5.42;100.00
26775;BME280;14362;51.902;7.626;2022-12-07T15:11:27;100750.94;;;5.32;100.00
26775;BME280;14362;51.902;7.626;2022-12-07T15:15:28;100736.34;;;5.27;100.00
26775;BME280;14362;51.902;7.626;2022-12-07T15:19:31;100740.56;;;5.19;100.00
26775;BME280;14362;51.902;7.626;2022-12-07T15:23:33;100740.59;;;5.14;100.00
26775;BME280;14362;51.902;7.626;2022-12-07T15:27:34;100743.16;;;5.06;100.00
26775;BME280;14362;51.902;7.626;2022-12-07T15:31:36;100741.28;;;5.02;100.00
26775;BME280;14362;51.902;7.626;2022-12-07T15:35:40;100732.75;;;4.98;100.00
26775;BME280;14362;51.902;7.626;2022-12-07T15:39:41;100728.06;;;4.94;100.00
26775;BME280;14362;51.902;7.626;2022-12-07T15:43:43;100720.09;;;4.87;100.00
26775;BME280;14362;51.902;7.626;2022-12-07T15:48:02;100719.88;;;4.84;100.00
26775;BME280;14362;51.902;7.626;2022-12-07T15:52:05;100718.75;;;4.85;100.00
26775;BME280;14362;51.902;7.626;2022-12-07T15:56:07;100709.16;;;4.77;100.00
26775;BME280;14362;51.902;7.626;2022-12-07T16:00:10;100705.56;;;4.77;100.00
26775;BME280;14362;51.902;7.626;2022-12-07T16:04:13;100703.34;;;4.79;100.00
26775;BME280;14362;51.902;7.626;2022-12-07T16:08:15;100710.50;;;4.80;100.00
26775;BME280;14362;51.902;7.626;2022-12-07T16:12:17;100714.38;;;4.79;100.00
26775;BME280;14362;51.902;7.626;2022-12-07T16:16:19;100708.84;;;4.79;100.00
26775;BME280;14362;51.902;7.626;2022-12-07T16:20:22;100706.06;;;4.84;100.00
26775;BME280;14362;51.902;7.626;2022-12-07T16:24:25;100698.06;;;4.82;100.00
26775;BME280;14362;51.902;7.626;2022-12-07T16:28:27;100697.78;;;4.84;100.00
26775;BME280;14362;51.902;7.626;2022-12-07T16:32:29;100688.66;;;4.83;100.00
26775;BME280;14362;51.902;7.626;2022-12-07T16:36:30;100692.53;;;4.82;100.00
26775;BME280;14362;51.902;7.626;2022-12-07T16:40:33;100696.44;;;4.81;100.00
26775;BME280;14362;51.902;7.626;2022-12-07T16:44:35;100690.94;;;4.76;100.00
26775;BME280;14362;51.902;7.626;2022-12-07T16:48:37;100686.75;;;4.79;100.00
26775;BME280;14362;51.902;7.626;2022-12-07T16:52:39;100685.66;;;4.80;100.00
26775;BME280;14362;51.902;7.626;2022-12-07T16:56:42;100668.00;;;4.76;100.00
26775;BME280;14362;51.902;7.626;2022-12-07T17:00:44;100665.81;;;4.73;100.00
26775;BME280;14362;51.902;7.626;2022-12-07T17:04:45;100660.34;;;4.68;100.00
26775;BME280;14362;51.902;7.626;2022-12-07T17:08:47;100664.22;;;4.67;100.00
26775;BME280;14362;51.902;7.626;2022-12-07T17:12:51;100662.03;;;4.64;100.00
26775;BME280;14362;51.902;7.626;2022-12-07T17:16:52;100656.53;;;4.64;100.00
26775;BME280;14362;51.902;7.626;2022-12-07T17:20:54;100664.22;;;4.67;100.00
26775;BME280;14362;51.902;7.626;2022-12-07T17:24:55;100661.47;;;4.67;100.00
26775;BME280;14362;51.902;7.626;2022-12-07T17:28:58;100659.25;;;4.69;100.00
26775;BME280;14362;51.902;7.626;2022-12-07T17:33:00;100648.78;;;4.66;100.00
26775;BME280;14362;51.902;7.626;2022-12-07T17:37:01;100651.81;;;4.64;100.00
26775;BME280;14362;51.902;7.626;2022-12-07T17:41:09;100662.59;;;4.61;100.00
26775;BME280;14362;51.902;7.626;2022-12-07T17:45:12;100658.19;;;4.60;100.00
26775;BME280;14362;51.902;7.626;2022-12-07T17:49:14;100652.69;;;4.55;100.00
26775;BME280;14362;51.902;7.626;2022-12-07T17:53:16;100652.44;;;4.56;100.00
26775;BME280;14362;51.902;7.626;2022-12-07T17:57:17;100638.41;;;4.53;100.00
26775;BME280;14362;51.902;7.626;2022-12-07T18:01:20;100642.78;;;4.54;100.00
26775;BME280;14362;51.902;7.626;2022-12-07T18:05:21;100635.91;;;4.51;100.00
26775;BME280;14362;51.902;7.626;2022-12-07T18:09:23;100631.78;;;4.49;100.00
26775;BME280;14362;51.902;7.626;2022-12-07T18:13:24;100623.53;;;4.44;100.00
26775;BME280;14362;51.902;7.626;2022-12-07T18:17:39;100621.59;;;4.44;100.00
26775;BME280;14362;51.902;7.626;2022-12-07T18:21:41;100617.78;;;4.40;100.00
26775;BME280;14362;51.902;7.626;2022-12-07T18:25:46;100612.84;;;4.37;100.00
26775;BME280;14362;51.902;7.626;2022-12-07T18:29:47;100611.44;;;4.35;100.00
26775;BME280;14362;51.902;7.626;2022-12-07T18:33:50;100612.31;;;4.30;100.00
26775;BME280;14362;51.902;7.626;2022-12-07T18:37:55;100611.50;;;4.30;100.00
26775;BME280;14362;51.902;7.626;2022-12-07T18:41:56;100608.22;;;4.28;100.00
26775;BME280;14362;51.902;7.626;2022-12-07T18:45:58;100605.72;;;4.26;100.00
26775;BME280;14362;51.902;7.626;2022-12-07T18:50:00;100612.06;;;4.27;100.00
26775;BME280;14362;51.902;7.626;2022-12-07T18:54:02;100605.47;;;4.28;100.00
26775;BME280;14362;51.902;7.626;2022-12-07T18:58:04;100596.06;;;4.29;100.00
26775;BME280;14362;51.902;7.626;2022-12-07T19:02:08;100602.19;;;4.21;100.00
26775;BME280;14362;51.902;7.626;2022-12-07T19:06:11;100606.59;;;4.22;100.00
26775;BME280;14362;51.902;7.626;2022-12-07T19:10:13;100603.03;;;4.21;100.00
26775;BME280;14362;51.902;7.626;2022-12-07T19:14:17;100599.19;;;4.17;100.00
26775;BME280;14362;51.902;7.626;2022-12-07T19:18:19;100585.72;;;4.11;100.00
26775;BME280;14362;51.902;7.626;2022-12-07T19:22:22;100585.97;;;4.09;100.00
26775;BME280;14362;51.902;7.626;2022-12-07T19:26:23;100593.44;;;4.09;100.00
26775;BME280;14362;51.902;7.626;2022-12-07T19:30:25;100601.19;;;4.07;100.00
26775;BME280;14362;51.902;7.626;2022-12-07T19:34:26;100586.28;;;4.08;100.00
26775;BME280;14362;51.902;7.626;2022-12-07T19:38:30;100585.75;;;4.06;100.00
26775;BME280;14362;51.902;7.626;2022-12-07T19:42:32;100584.63;;;4.07;100.00
26775;BME280;14362;51.902;7.626;2022-12-07T19:46:35;100587.38;;;4.07;100.00
26775;BME280;14362;51.902;7.626;2022-12-07T19:50:36;100583.28;;;4.04;100.00
26775;BME280;14362;51.902;7.626;2022-12-07T19:54:39;100578.28;;;4.06;100.00
26775;BME280;14362;51.902;7.626;2022-12-07T19:58:41;100572.25;;;4.04;100.00
26775;BME280;14362;51.902;7.626;2022-12-07T20:02:42;100559.03;;;4.02;100.00
26775;BME280;14362;51.902;7.626;2022-12-07T20:06:44;100557.06;;;4.02;100.00
26775;BME280;14362;51.902;7.626;2022-12-07T20:10:47;100551.88;;;4.01;100.00
26775;BME280;14362;51.902;7.626;2022-12-07T20:14:50;100552.41;;;4.03;100.00
26775;BME280;14362;51.902;7.626;2022-12-07T20:18:51;100547.47;;;4.00;100.00
26775;BME280;14362;51.902;7.626;2022-12-07T20:22:53;100541.09;;;3.99;100.00
26775;BME280;14362;51.902;7.626;2022-12-07T20:26:56;100530.38;;;3.98;100.00
26775;BME280;14362;51.902;7.626;2022-12-07T20:30:57;100522.66;;;3.95;100.00
26775;BME280;14362;51.902;7.626;2022-12-07T20:34:59;100522.44;;;3.91;100.00
26775;BME280;14362;51.902;7.626;2022-12-07T20:39:01;100529.06;;;3.85;100.00
26775;BME280;14362;51.902;7.626;2022-12-07T20:43:03;100517.25;;;3.80;100.00
26775;BME280;14362;51.902;7.626;2022-12-07T20:47:05;100519.19;;;3.79;100.00
26775;BME280;14362;51.902;7.626;2022-12-07T20:51:07;100506.25;;;3.75;100.00
26775;BME280;14362;51.902;7.626;2022-12-07T20:55:09;100502.41;;;3.71;100.00
26775;BME280;14362;51.902;7.626;2022-12-07T20:59:13;100496.66;;;3.67;100.00
26775;BME280;14362;51.902;7.626;2022-12-07T21:03:15;100491.16;;;3.62;100.00
26775;BME280;14362;51.902;7.626;2022-12-07T21:07:17;100502.19;;;3.62;100.00
26775;BME280;14362;51.902;7.626;2022-12-07T21:11:20;100498.91;;;3.60;100.00
26775;BME280;14362;51.902;7.626;2022-12-07T21:15:23;100490.13;;;3.58;100.00
26775;BME280;14362;51.902;7.626;2022-12-07T21:19:24;100489.28;;;3.58;100.00